Terminal Aerodrome Forecast
Issued by NWS

Home | Current Version | Previous Version | Text Only | Print | Product List | Glossary On
Versions: 1 2 3 4 5 6 7 8 9 10 11 12 13 14 15 16 17 18 19 20 21 22 23 24 25 26 27 28 29 30 31
000
FTUS41 KBOX 012321
TAFBED
TAF
KBED 012321Z 0200/0224 34005KT P6SM BKN250
     FM020500 02004KT P6SM OVC025
     FM020700 02004KT 2SM -SN OVC015
     FM020900 03004KT 1SM -SN OVC008
     FM021200 05007KT 1/4SM +SN OVC008
     FM021800 03012G23KT 1/2SM SN OVC008
     FM022300 34013G22KT 2SM -SN OVC025=

USA.gov is the U.S. government's official web portal to all federal, state and local government web resources and services.